Terminal Aerodrome Forecast
Issued by NWS Jackson, KY

Home | Current Version | Previous Version | Text Only | Print | Product List | Glossary Off
Versions: 1 2 3 4 5 6 7 8 9 10 11 12 13 14 15 16 17 18 19 20 21 22 23 24 25 26 27 28 29 30 31 32 33 34 35 36 37

000
FTUS43 KJKL 041431 AAB
TAFJKL
TAF AMD
KJKL 041431Z 0415/0512 00000KT P6SM OVC008
     FM041600 VRB03KT P6SM SCT010 OVC015
     FM041900 VRB03KT P6SM BKN035 BKN090
     FM050500 VRB03KT 3SM BR VCSH SCT015 OVC035=

USA.gov is the U.S. government's official web portal to all federal, state and local government web resources and services.